createdAt,value
2018-01-28T00:00:40.340Z,1024.63
2018-01-28T00:01:40.293Z,1024.59
2018-01-28T00:02:40.359Z,1024.64
2018-01-28T00:03:40.237Z,1024.70
2018-01-28T00:04:40.273Z,1024.65
2018-01-28T00:05:40.179Z,1024.60
2018-01-28T00:06:40.179Z,1024.61
2018-01-28T00:07:40.118Z,1024.70
2018-01-28T00:08:40.195Z,1024.66
2018-01-28T00:09:40.062Z,1024.61
2018-01-28T00:10:40.105Z,1024.66
2018-01-28T00:11:40.003Z,1024.61
2018-01-28T00:12:40.017Z,1024.77
2018-01-28T00:13:39.946Z,1024.56
2018-01-28T00:14:39.931Z,1024.75
2018-01-28T00:15:39.889Z,1024.60
2018-01-28T00:16:39.948Z,1024.67
2018-01-28T00:17:39.837Z,1024.63
2018-01-28T00:18:39.855Z,1024.65
2018-01-28T00:19:39.775Z,1024.60
2018-01-28T00:20:39.765Z,1024.63
2018-01-28T00:21:39.718Z,1024.61
2018-01-28T00:22:39.780Z,1024.60
2018-01-28T00:23:39.658Z,1024.60
2018-01-28T00:24:39.691Z,1024.57
2018-01-28T00:25:39.601Z,1024.52
2018-01-28T00:26:39.601Z,1024.56
2018-01-28T00:27:39.542Z,1024.49
2018-01-28T00:28:39.619Z,1024.43
2018-01-28T00:29:39.489Z,1024.54
2018-01-28T00:30:39.527Z,1024.51
2018-01-28T00:31:39.426Z,1024.46
2018-01-28T00:32:39.439Z,1024.59
2018-01-28T00:33:39.372Z,1024.54
2018-01-28T00:34:39.453Z,1024.57
2018-01-28T00:35:39.314Z,1024.49
2018-01-28T00:36:39.366Z,1024.61
2018-01-28T00:37:39.256Z,1024.53
2018-01-28T00:38:39.280Z,1024.48
2018-01-28T00:39:39.200Z,1024.46
2018-01-28T00:40:39.189Z,1024.44
2018-01-28T00:41:39.141Z,1024.48
2018-01-28T00:42:39.202Z,1024.49
2018-01-28T00:43:39.086Z,1024.48
2018-01-28T00:44:39.113Z,1024.43
2018-01-28T00:45:39.028Z,1024.40
2018-01-28T00:46:39.024Z,1024.36
2018-01-28T00:47:38.970Z,1024.31
2018-01-28T00:48:39.040Z,1024.23
2018-01-28T00:49:38.910Z,1024.29
2018-01-28T00:50:38.953Z,1024.19
2018-01-28T00:51:38.854Z,1024.20
2018-01-28T00:52:38.863Z,1024.26
2018-01-28T00:53:38.797Z,1024.30
2018-01-28T00:54:38.876Z,1024.13
2018-01-28T00:55:38.737Z,1024.07
2018-01-28T00:56:38.789Z,1024.18
2018-01-28T00:57:38.682Z,1024.05
2018-01-28T00:58:38.701Z,1024.03
2018-01-28T00:59:38.622Z,1024.02
2018-01-28T01:00:38.610Z,1024.09
2018-01-28T01:01:38.571Z,1024.17
2018-01-28T01:02:38.625Z,1024.01
2018-01-28T01:03:38.509Z,1023.99
2018-01-28T01:04:38.535Z,1024.02
2018-01-28T01:05:38.454Z,1023.96
2018-01-28T01:06:38.449Z,1024.07
2018-01-28T01:07:38.396Z,1024.00
2018-01-28T01:08:38.462Z,1023.98
2018-01-28T01:09:38.338Z,1023.99
2018-01-28T01:10:38.377Z,1024.06
2018-01-28T01:11:38.281Z,1023.97
2018-01-28T01:12:38.289Z,1024.01
2018-01-28T01:13:38.221Z,1024.05
2018-01-28T01:14:38.299Z,1023.98
2018-01-28T01:15:38.163Z,1024.07
2018-01-28T01:16:38.211Z,1024.09
2018-01-28T01:17:38.107Z,1024.11
2018-01-28T01:18:38.122Z,1024.08
2018-01-28T01:19:38.049Z,1024.09
2018-01-28T01:20:38.042Z,1024.19
2018-01-28T01:21:37.992Z,1024.19
2018-01-28T01:22:38.047Z,1024.23
2018-01-28T01:23:37.932Z,1024.15
2018-01-28T01:24:37.959Z,1024.27
2018-01-28T01:25:37.877Z,1024.22
2018-01-28T01:26:37.872Z,1024.29
2018-01-28T01:27:37.820Z,1024.26
2018-01-28T01:28:37.883Z,1024.17
2018-01-28T01:29:37.762Z,1024.21
2018-01-28T01:30:37.797Z,1024.33
2018-01-28T01:31:37.704Z,1024.32
2018-01-28T01:32:37.707Z,1024.31
2018-01-28T01:33:37.647Z,1024.26
2018-01-28T01:34:37.725Z,1024.34
2018-01-28T01:35:37.588Z,1024.37
2018-01-28T01:36:37.634Z,1024.41
2018-01-28T01:37:37.533Z,1024.41
2018-01-28T01:38:37.545Z,1024.49
2018-01-28T01:39:37.476Z,1024.37
2018-01-28T01:40:37.560Z,1024.39
2018-01-28T01:41:37.419Z,1024.30
2018-01-28T01:42:37.470Z,1024.36
2018-01-28T01:43:37.360Z,1024.46
2018-01-28T01:44:37.382Z,1024.32
2018-01-28T01:45:37.301Z,1024.30
2018-01-28T01:46:37.292Z,1024.34
2018-01-28T01:47:37.247Z,1024.42
2018-01-28T01:48:37.308Z,1024.44
2018-01-28T01:49:37.189Z,1024.45
2018-01-28T01:50:37.221Z,1024.52
2018-01-28T01:51:37.132Z,1024.48
2018-01-28T01:52:37.130Z,1024.43
2018-01-28T01:53:37.077Z,1024.43
2018-01-28T01:54:37.143Z,1024.49
2018-01-28T01:55:37.023Z,1024.45
2018-01-28T01:56:37.056Z,1024.43
2018-01-28T01:57:36.968Z,1024.51
2018-01-28T01:58:36.968Z,1024.46
2018-01-28T01:59:36.903Z,1024.53
2018-01-28T02:00:36.979Z,1024.57
2018-01-28T02:01:36.849Z,1024.45
2018-01-28T02:02:36.892Z,1024.47
2018-01-28T02:03:36.789Z,1024.56
2018-01-28T02:04:36.805Z,1024.37
2018-01-28T02:05:36.736Z,1024.55
2018-01-28T02:06:36.818Z,1024.32
2018-01-28T02:07:36.677Z,1024.39
2018-01-28T02:08:36.731Z,1024.29
2018-01-28T02:09:36.621Z,1024.34
2018-01-28T02:10:36.643Z,1024.26
2018-01-28T02:11:36.564Z,1024.21
2018-01-28T02:12:36.553Z,1024.21
2018-01-28T02:13:36.507Z,1024.17
2018-01-28T02:14:36.566Z,1024.25
2018-01-28T02:15:36.450Z,1024.15
2018-01-28T02:16:36.479Z,1024.22
2018-01-28T02:17:36.396Z,1024.24
2018-01-28T02:18:36.390Z,1024.33
2018-01-28T02:19:36.336Z,1024.28
2018-01-28T02:20:36.402Z,1024.36
2018-01-28T02:21:36.281Z,1024.32
2018-01-28T02:22:36.320Z,1024.34
2018-01-28T02:23:36.222Z,1024.55
2018-01-28T02:24:36.228Z,1024.59
2018-01-28T02:25:36.173Z,1024.45
2018-01-28T02:26:36.242Z,1024.47
2018-01-28T02:27:36.110Z,1024.51
2018-01-28T02:28:36.154Z,1024.67
2018-01-28T02:29:36.055Z,1024.51
2018-01-28T02:30:36.067Z,1024.50
2018-01-28T02:31:35.997Z,1024.56
2018-01-28T02:32:36.079Z,1024.58
2018-01-28T02:33:35.939Z,1024.49
2018-01-28T02:34:35.990Z,1024.47
2018-01-28T02:35:35.882Z,1024.41
2018-01-28T02:36:35.906Z,1024.43
2018-01-28T02:37:35.831Z,1024.40
2018-01-28T02:38:35.817Z,1024.38
2018-01-28T02:39:35.769Z,1024.32
2018-01-28T02:40:35.825Z,1024.41
2018-01-28T02:41:35.713Z,1024.37
2018-01-28T02:42:35.739Z,1024.47
2018-01-28T02:43:35.659Z,1024.45
2018-01-28T02:44:35.651Z,1024.58
2018-01-28T02:45:35.600Z,1024.46
2018-01-28T02:46:35.663Z,1024.46
2018-01-28T02:47:35.545Z,1024.37
2018-01-28T02:48:35.576Z,1024.44
2018-01-28T02:49:35.487Z,1024.53
2018-01-28T02:50:35.488Z,1024.45
2018-01-28T02:51:35.431Z,1024.40
2018-01-28T02:52:35.501Z,1024.35
2018-01-28T02:53:35.377Z,1024.52
2018-01-28T02:54:35.413Z,1024.34
2018-01-28T02:55:35.318Z,1024.32
2018-01-28T02:56:35.326Z,1024.24
2018-01-28T02:57:35.262Z,1024.20
2018-01-28T02:58:35.343Z,1024.20
2018-01-28T02:59:35.206Z,1024.26
2018-01-28T03:00:35.250Z,1024.24
2018-01-28T03:01:35.147Z,1024.31
2018-01-28T03:02:35.160Z,1024.31
2018-01-28T03:03:35.098Z,1024.30
2018-01-28T03:04:35.176Z,1024.35
2018-01-28T03:05:35.037Z,1024.35
2018-01-28T03:06:35.087Z,1024.47
2018-01-28T03:07:34.979Z,1024.38
2018-01-28T03:08:34.999Z,1024.31
2018-01-28T03:09:34.924Z,1024.46
2018-01-28T03:10:34.909Z,1024.47
2018-01-28T03:11:34.866Z,1024.39
2018-01-28T03:12:34.925Z,1024.38
2018-01-28T03:13:34.810Z,1024.33
2018-01-28T03:14:34.835Z,1024.35
2018-01-28T03:15:34.755Z,1024.30
2018-01-28T03:16:34.748Z,1024.32
2018-01-28T03:17:34.700Z,1024.34
2018-01-28T03:18:34.763Z,1024.33
2018-01-28T03:19:34.641Z,1024.30
2018-01-28T03:20:34.673Z,1024.37
2018-01-28T03:21:34.586Z,1024.33
2018-01-28T03:22:34.584Z,1024.31
2018-01-28T03:23:34.528Z,1024.31
2018-01-28T03:24:34.598Z,1024.30
2018-01-28T03:25:34.475Z,1024.23
2018-01-28T03:26:34.508Z,1024.27
2018-01-28T03:27:34.422Z,1024.25
2018-01-28T03:28:34.418Z,1024.22
2018-01-28T03:29:34.358Z,1024.36
2018-01-28T03:30:34.436Z,1024.45
2018-01-28T03:31:34.303Z,1024.43
2018-01-28T03:32:34.352Z,1024.45
2018-01-28T03:33:34.248Z,1024.38
2018-01-28T03:34:34.256Z,1024.37
2018-01-28T03:35:34.196Z,1024.35
2018-01-28T03:36:34.276Z,1024.29
2018-01-28T03:37:34.138Z,1024.35
2018-01-28T03:38:34.182Z,1024.41
2018-01-28T03:39:34.083Z,1024.41
2018-01-28T03:40:34.096Z,1024.44
2018-01-28T03:41:34.025Z,1024.40
2018-01-28T03:42:34.111Z,1024.40
2018-01-28T03:43:33.969Z,1024.40
2018-01-28T03:44:34.021Z,1024.41
2018-01-28T03:45:33.912Z,1024.49
2018-01-28T03:46:33.932Z,1024.48
2018-01-28T03:47:33.857Z,1024.53
2018-01-28T03:48:33.843Z,1024.48
2018-01-28T03:49:33.800Z,1024.54
2018-01-28T03:50:33.856Z,1024.45
2018-01-28T03:51:33.743Z,1024.53
2018-01-28T03:52:33.766Z,1024.46
2018-01-28T03:53:33.688Z,1024.58
2018-01-28T03:54:33.680Z,1024.42
2018-01-28T03:55:33.633Z,1024.47
2018-01-28T03:56:33.696Z,1024.47
2018-01-28T03:57:33.574Z,1024.49
2018-01-28T03:58:33.605Z,1024.49
2018-01-28T03:59:33.523Z,1024.37
2018-01-28T04:00:33.517Z,1024.48
2018-01-28T04:01:33.465Z,1024.39
2018-01-28T04:02:33.532Z,1024.42
2018-01-28T04:03:33.406Z,1024.42
2018-01-28T04:04:33.446Z,1024.49
2018-01-28T04:05:33.353Z,1024.52
2018-01-28T04:06:33.356Z,1024.53
2018-01-28T04:07:33.298Z,1024.56
2018-01-28T04:08:33.369Z,1024.60
2018-01-28T04:09:33.246Z,1024.66
2018-01-28T04:10:33.281Z,1024.63
2018-01-28T04:11:33.190Z,1024.55
2018-01-28T04:12:33.192Z,1024.54
2018-01-28T04:13:33.129Z,1024.67
2018-01-28T04:14:33.208Z,1024.59
2018-01-28T04:15:33.073Z,1024.57
2018-01-28T04:16:33.119Z,1024.58
2018-01-28T04:17:33.019Z,1024.62
2018-01-28T04:18:33.036Z,1024.58
2018-01-28T04:19:32.966Z,1024.57
2018-01-28T04:20:33.043Z,1024.56
2018-01-28T04:21:32.908Z,1024.63
2018-01-28T04:22:32.955Z,1024.58
2018-01-28T04:23:32.850Z,1024.58
2018-01-28T04:24:32.865Z,1024.58
2018-01-28T04:25:32.795Z,1024.64
2018-01-28T04:26:32.777Z,1024.65
2018-01-28T04:27:32.738Z,1024.69
2018-01-28T04:28:32.789Z,1024.76
2018-01-28T04:29:32.686Z,1024.72
2018-01-28T04:30:32.700Z,1024.78
2018-01-28T04:31:32.624Z,1024.81
2018-01-28T04:32:32.616Z,1024.80
2018-01-28T04:33:32.571Z,1024.73
2018-01-28T04:34:32.628Z,1024.76
2018-01-28T04:35:32.513Z,1024.67
2018-01-28T04:36:32.539Z,1024.81
2018-01-28T04:37:32.459Z,1024.69
2018-01-28T04:38:32.456Z,1024.68
2018-01-28T04:39:32.402Z,1024.85
2018-01-28T04:40:32.464Z,1024.89
2018-01-28T04:41:32.345Z,1024.91
2018-01-28T04:42:32.377Z,1024.79
2018-01-28T04:43:32.291Z,1024.86
2018-01-28T04:44:32.289Z,1024.92
2018-01-28T04:45:32.236Z,1024.94
2018-01-28T04:46:32.304Z,1024.90
2018-01-28T04:47:32.180Z,1024.91
2018-01-28T04:48:32.213Z,1024.86
2018-01-28T04:49:32.128Z,1024.90
2018-01-28T04:50:32.125Z,1024.83
2018-01-28T04:51:32.070Z,1024.88
2018-01-28T04:52:32.141Z,1024.95
2018-01-28T04:53:32.018Z,1025.00
2018-01-28T04:54:32.049Z,1024.95
2018-01-28T04:55:31.958Z,1024.88
2018-01-28T04:56:31.963Z,1024.99
2018-01-28T04:57:31.903Z,1024.93
2018-01-28T04:58:31.976Z,1024.88
2018-01-28T04:59:31.847Z,1024.90
2018-01-28T05:00:31.888Z,1024.91
2018-01-28T05:01:31.790Z,1024.93
2018-01-28T05:02:31.800Z,1024.92
2018-01-28T05:03:31.737Z,1024.94
2018-01-28T05:04:31.811Z,1024.91
2018-01-28T05:05:31.682Z,1025.01
2018-01-28T05:06:31.724Z,1024.99
2018-01-28T05:07:31.630Z,1025.06
2018-01-28T05:08:31.639Z,1025.13
2018-01-28T05:09:31.570Z,1025.18
2018-01-28T05:10:31.655Z,1025.08
2018-01-28T05:11:31.560Z,1025.14
2018-01-28T05:12:31.561Z,1025.19
2018-01-28T05:13:31.461Z,1025.07
2018-01-28T05:14:31.473Z,1025.09
2018-01-28T05:15:31.407Z,1025.00
2018-01-28T05:16:31.487Z,1025.11
2018-01-28T05:17:31.344Z,1025.13
2018-01-28T05:18:31.399Z,1025.07
2018-01-28T05:19:31.296Z,1025.15
2018-01-28T05:20:31.313Z,1025.09
2018-01-28T05:21:31.238Z,1025.15
2018-01-28T05:22:31.221Z,1025.07
2018-01-28T05:23:31.182Z,1025.03
2018-01-28T05:24:31.234Z,1025.03
2018-01-28T05:25:31.126Z,1025.03
2018-01-28T05:26:31.146Z,1025.17
2018-01-28T05:27:31.071Z,1025.17
2018-01-28T05:28:31.163Z,1025.17
2018-01-28T05:29:31.017Z,1025.23
2018-01-28T05:30:31.074Z,1025.31
2018-01-28T05:31:30.961Z,1025.24
2018-01-28T05:32:30.985Z,1025.19
2018-01-28T05:33:30.904Z,1025.17
2018-01-28T05:34:30.895Z,1025.25
2018-01-28T05:35:30.992Z,1025.16
2018-01-28T05:36:30.910Z,1025.23
2018-01-28T05:37:30.796Z,1025.15
2018-01-28T05:38:30.822Z,1025.20
2018-01-28T05:39:30.741Z,1025.15
2018-01-28T05:40:30.732Z,1025.20
2018-01-28T05:41:30.683Z,1025.21
2018-01-28T05:42:30.750Z,1025.24
2018-01-28T05:43:30.628Z,1025.19
2018-01-28T05:44:30.660Z,1025.16
2018-01-28T05:45:30.574Z,1025.11
2018-01-28T05:46:30.571Z,1025.15
2018-01-28T05:47:30.518Z,1025.05
2018-01-28T05:48:30.582Z,1025.04
2018-01-28T05:49:30.469Z,1025.07
2018-01-28T05:50:30.495Z,1025.11
2018-01-28T05:51:30.419Z,1025.18
2018-01-28T05:52:30.406Z,1025.12
2018-01-28T05:53:30.355Z,1025.20
2018-01-28T05:54:30.415Z,1025.19
2018-01-28T05:55:30.303Z,1025.18
2018-01-28T05:56:30.332Z,1025.19
2018-01-28T05:57:30.244Z,1025.14
2018-01-28T05:58:30.244Z,1025.15
2018-01-28T05:59:30.201Z,1025.19
2018-01-28T06:00:30.259Z,1025.22
2018-01-28T06:01:30.135Z,1025.20
2018-01-28T06:02:30.170Z,1025.21
2018-01-28T06:03:30.078Z,1025.24
2018-01-28T06:04:30.085Z,1025.24
2018-01-28T06:05:30.026Z,1025.30
2018-01-28T06:06:30.095Z,1025.28
2018-01-28T06:07:29.968Z,1025.30
2018-01-28T06:08:30.006Z,1025.30
2018-01-28T06:09:29.919Z,1025.33
2018-01-28T06:10:29.918Z,1025.37
2018-01-28T06:11:29.856Z,1025.37
2018-01-28T06:12:29.932Z,1025.42
2018-01-28T06:13:29.804Z,1025.48
2018-01-28T06:14:29.843Z,1025.46
2018-01-28T06:15:29.748Z,1025.40
2018-01-28T06:16:29.755Z,1025.51
2018-01-28T06:17:29.691Z,1025.53
2018-01-28T06:18:29.768Z,1025.44
2018-01-28T06:19:29.635Z,1025.49
2018-01-28T06:20:29.679Z,1025.55
2018-01-28T06:21:29.579Z,1025.53
2018-01-28T06:22:29.594Z,1025.51
2018-01-28T06:23:29.526Z,1025.55
2018-01-28T06:24:29.606Z,1025.59
2018-01-28T06:25:29.472Z,1025.58
2018-01-28T06:26:29.518Z,1025.55
2018-01-28T06:27:29.414Z,1025.61
2018-01-28T06:28:29.426Z,1025.68
2018-01-28T06:29:29.359Z,1025.71
2018-01-28T06:30:29.441Z,1025.74
2018-01-28T06:31:29.307Z,1025.79
2018-01-28T06:32:29.354Z,1025.81
2018-01-28T06:33:29.252Z,1025.76
2018-01-28T06:34:29.264Z,1025.80
2018-01-28T06:35:29.196Z,1025.70
2018-01-28T06:36:29.280Z,1025.77
2018-01-28T06:37:29.140Z,1025.73
2018-01-28T06:38:29.191Z,1025.81
2018-01-28T06:39:29.084Z,1025.78
2018-01-28T06:40:29.205Z,1025.84
2018-01-28T06:41:29.032Z,1025.90
2018-01-28T06:42:29.117Z,1025.93
2018-01-28T06:43:28.976Z,1026.00
2018-01-28T06:44:28.949Z,1025.98
2018-01-28T06:45:28.925Z,1025.96
2018-01-28T06:46:29.043Z,1025.99
2018-01-28T06:47:28.876Z,1026.00
2018-01-28T06:48:28.951Z,1026.03
2018-01-28T06:49:28.833Z,1025.98
2018-01-28T06:50:28.864Z,1026.00
2018-01-28T06:51:28.759Z,1025.96
2018-01-28T06:52:28.881Z,1025.95
2018-01-28T06:53:28.702Z,1025.91
2018-01-28T06:54:28.792Z,1025.90
2018-01-28T06:55:28.646Z,1025.93
2018-01-28T06:56:28.703Z,1025.94
2018-01-28T06:57:28.592Z,1025.91
2018-01-28T06:58:28.718Z,1026.01
2018-01-28T06:59:28.537Z,1025.89
2018-01-28T07:00:28.630Z,1026.08
2018-01-28T07:01:28.487Z,1026.03
2018-01-28T07:02:28.541Z,1025.96
2018-01-28T07:03:28.430Z,1025.95
2018-01-28T07:04:28.555Z,1025.97
2018-01-28T07:05:28.379Z,1025.96
2018-01-28T07:06:28.463Z,1026.02
2018-01-28T07:07:28.319Z,1025.99
2018-01-28T07:08:28.378Z,1026.05
2018-01-28T07:09:28.264Z,1026.10
2018-01-28T07:10:28.393Z,1026.19
2018-01-28T07:11:28.207Z,1025.97
2018-01-28T07:12:28.303Z,1026.06
2018-01-28T07:13:28.154Z,1025.97
2018-01-28T07:14:28.214Z,1026.03
2018-01-28T07:15:28.098Z,1026.10
2018-01-28T07:16:28.225Z,1026.09
2018-01-28T07:17:28.044Z,1026.24
2018-01-28T07:18:28.137Z,1026.07
2018-01-28T07:19:27.987Z,1026.00
2018-01-28T07:20:28.052Z,1026.13
2018-01-28T07:21:27.944Z,1026.07
2018-01-28T07:22:28.067Z,1026.05
2018-01-28T07:23:27.883Z,1026.10
2018-01-28T07:24:27.973Z,1026.14
2018-01-28T07:25:27.827Z,1026.16
2018-01-28T07:26:27.989Z,1026.31
2018-01-28T07:27:27.774Z,1026.17
2018-01-28T07:28:27.904Z,1026.25
2018-01-28T07:29:27.717Z,1026.28
2018-01-28T07:30:27.812Z,1026.34
2018-01-28T07:31:27.664Z,1026.35
2018-01-28T07:32:27.825Z,1026.35
2018-01-28T07:33:27.610Z,1026.40
2018-01-28T07:34:27.737Z,1026.47
2018-01-28T07:35:27.552Z,1026.49
2018-01-28T07:36:27.649Z,1026.49
2018-01-28T07:37:27.497Z,1026.53
2018-01-28T07:38:27.665Z,1026.50
2018-01-28T07:39:27.443Z,1026.60
2018-01-28T07:40:27.575Z,1026.56
2018-01-28T07:41:27.391Z,1026.54
2018-01-28T07:42:27.490Z,1026.58
2018-01-28T07:43:27.335Z,1026.51
2018-01-28T07:44:27.502Z,1026.52
2018-01-28T07:45:27.281Z,1026.42
2018-01-28T07:46:27.410Z,1026.54
2018-01-28T07:47:27.225Z,1026.52
2018-01-28T07:48:27.321Z,1026.59
2018-01-28T07:49:27.168Z,1026.53
2018-01-28T07:50:27.339Z,1026.55
2018-01-28T07:51:27.118Z,1026.61
2018-01-28T07:52:27.250Z,1026.60
2018-01-28T07:53:27.063Z,1026.55
2018-01-28T07:54:27.162Z,1026.59
2018-01-28T07:55:27.006Z,1026.54
2018-01-28T07:56:27.175Z,1026.55
2018-01-28T07:57:26.954Z,1026.59
2018-01-28T07:58:27.083Z,1026.45
2018-01-28T07:59:26.899Z,1026.45
2018-01-28T08:00:26.996Z,1026.46
2018-01-28T08:01:26.847Z,1026.45
2018-01-28T08:02:27.010Z,1026.46
2018-01-28T08:03:26.791Z,1026.45
2018-01-28T08:04:26.922Z,1026.42
2018-01-28T08:05:26.738Z,1026.64
2018-01-28T08:06:26.836Z,1026.46
2018-01-28T08:07:26.682Z,1026.46
2018-01-28T08:08:26.747Z,1026.51
2018-01-28T08:09:26.630Z,1026.50
2018-01-28T08:10:26.659Z,1026.50
2018-01-28T08:11:26.573Z,1026.53
2018-01-28T08:12:26.571Z,1026.65
2018-01-28T08:13:26.519Z,1026.60
2018-01-28T08:14:26.585Z,1026.63
2018-01-28T08:15:26.468Z,1026.64
2018-01-28T08:16:26.495Z,1026.61
2018-01-28T08:17:26.413Z,1026.65
2018-01-28T08:18:26.508Z,1026.70
2018-01-28T08:19:26.356Z,1026.68
2018-01-28T08:20:26.417Z,1026.69
2018-01-28T08:21:26.304Z,1026.73
2018-01-28T08:22:26.332Z,1026.73
2018-01-28T08:23:26.251Z,1026.72
2018-01-28T08:24:26.344Z,1026.73
2018-01-28T08:25:26.198Z,1026.81
2018-01-28T08:26:26.259Z,1026.72
2018-01-28T08:27:26.144Z,1026.78
2018-01-28T08:28:26.169Z,1026.72
2018-01-28T08:29:26.089Z,1026.75
2018-01-28T08:30:26.183Z,1026.77
2018-01-28T08:31:26.035Z,1026.75
2018-01-28T08:32:26.092Z,1026.82
2018-01-28T08:33:25.978Z,1026.78
2018-01-28T08:34:26.006Z,1026.74
2018-01-28T08:35:25.928Z,1026.76
2018-01-28T08:36:26.020Z,1026.80
2018-01-28T08:37:25.874Z,1026.72
2018-01-28T08:38:25.934Z,1026.72
2018-01-28T08:39:25.820Z,1026.73
2018-01-28T08:40:25.842Z,1026.78
2018-01-28T08:41:25.767Z,1026.79
2018-01-28T08:42:25.859Z,1026.81
2018-01-28T08:43:25.712Z,1026.77
2018-01-28T08:44:25.768Z,1026.85
2018-01-28T08:45:25.660Z,1026.84
2018-01-28T08:46:25.678Z,1026.86
2018-01-28T08:47:25.604Z,1026.88
2018-01-28T08:48:25.694Z,1026.92
2018-01-28T08:49:25.552Z,1026.89
2018-01-28T08:50:25.606Z,1026.88
2018-01-28T08:51:25.498Z,1026.89
2018-01-28T08:52:25.617Z,1026.92
2018-01-28T08:53:25.445Z,1026.86
2018-01-28T08:54:25.530Z,1026.84
2018-01-28T08:55:25.392Z,1026.88
2018-01-28T08:56:25.442Z,1026.82
2018-01-28T08:57:25.339Z,1026.87
2018-01-28T08:58:25.456Z,1026.86
2018-01-28T08:59:25.286Z,1026.87
2018-01-28T09:00:25.366Z,1026.85
2018-01-28T09:01:25.234Z,1026.88
2018-01-28T09:02:25.280Z,1026.88
2018-01-28T09:03:25.173Z,1026.90
2018-01-28T09:04:25.292Z,1027.01
2018-01-28T09:05:25.129Z,1026.96
2018-01-28T09:06:25.204Z,1026.89
2018-01-28T09:07:25.073Z,1026.84
2018-01-28T09:08:25.117Z,1026.89
2018-01-28T09:09:25.020Z,1026.91
2018-01-28T09:10:25.132Z,1026.93
2018-01-28T09:11:24.968Z,1026.98
2018-01-28T09:12:25.042Z,1026.95
2018-01-28T09:13:24.912Z,1026.95
2018-01-28T09:14:24.954Z,1026.96
2018-01-28T09:15:24.858Z,1026.90
2018-01-28T09:16:24.969Z,1026.94
2018-01-28T09:17:24.808Z,1026.95
2018-01-28T09:18:24.877Z,1027.02
2018-01-28T09:19:24.756Z,1027.01
2018-01-28T09:20:24.892Z,1027.06
2018-01-28T09:21:24.702Z,1026.97
2018-01-28T09:22:24.803Z,1026.93
2018-01-28T09:23:24.647Z,1027.02
2018-01-28T09:24:24.715Z,1026.98
2018-01-28T09:25:24.595Z,1026.94
2018-01-28T09:26:24.729Z,1026.96
2018-01-28T09:27:24.541Z,1026.96
2018-01-28T09:28:24.642Z,1027.05
2018-01-28T09:29:24.478Z,1027.12
2018-01-28T09:30:24.552Z,1027.06
2018-01-28T09:31:24.438Z,1027.09
2018-01-28T09:32:24.564Z,1027.02
2018-01-28T09:33:24.384Z,1027.06
2018-01-28T09:34:24.480Z,1027.04
2018-01-28T09:35:24.332Z,1027.09
2018-01-28T09:36:24.391Z,1027.15
2018-01-28T09:37:24.275Z,1027.12
2018-01-28T09:38:24.402Z,1027.15
2018-01-28T09:39:24.225Z,1027.16
2018-01-28T09:40:24.313Z,1027.18
2018-01-28T09:41:24.172Z,1027.16
2018-01-28T09:42:24.328Z,1027.16
2018-01-28T09:43:24.119Z,1027.16
2018-01-28T09:44:24.240Z,1027.18
2018-01-28T09:45:24.068Z,1027.34
2018-01-28T09:46:24.153Z,1027.22
2018-01-28T09:47:24.013Z,1027.27
2018-01-28T09:48:24.166Z,1027.20
2018-01-28T09:49:23.965Z,1027.16
2018-01-28T09:50:24.077Z,1027.22
2018-01-28T09:51:23.910Z,1027.30
2018-01-28T09:52:23.995Z,1027.23
2018-01-28T09:53:23.856Z,1027.20
2018-01-28T09:54:24.033Z,1027.31
2018-01-28T09:55:23.803Z,1027.36
2018-01-28T09:56:23.914Z,1027.36
2018-01-28T09:57:23.751Z,1027.35
2018-01-28T09:58:23.722Z,1027.41
2018-01-28T09:59:23.698Z,1027.43
2018-01-28T10:00:23.741Z,1027.42
2018-01-28T10:01:23.646Z,1027.41
2018-01-28T10:02:23.648Z,1027.38
2018-01-28T10:03:23.594Z,1027.38
2018-01-28T10:04:23.677Z,1027.47
2018-01-28T10:05:23.542Z,1027.47
2018-01-28T10:06:23.576Z,1027.45
2018-01-28T10:07:23.490Z,1027.43
2018-01-28T10:08:23.487Z,1027.52
2018-01-28T10:09:23.436Z,1027.49
2018-01-28T10:10:23.503Z,1027.56
2018-01-28T10:11:23.383Z,1027.56
2018-01-28T10:12:23.411Z,1027.67
2018-01-28T10:13:23.330Z,1027.60
2018-01-28T10:14:23.323Z,1027.61
2018-01-28T10:15:23.281Z,1027.70
2018-01-28T10:16:23.340Z,1027.72
2018-01-28T10:17:23.227Z,1027.73
2018-01-28T10:18:23.248Z,1027.74
2018-01-28T10:19:23.173Z,1027.77
2018-01-28T10:20:23.158Z,1027.85
2018-01-28T10:21:23.126Z,1027.88
2018-01-28T10:22:23.193Z,1027.86
2018-01-28T10:23:23.068Z,1027.84
2018-01-28T10:24:23.086Z,1027.82
2018-01-28T10:25:23.018Z,1027.87
2018-01-28T10:26:23.100Z,1027.85
2018-01-28T10:27:22.966Z,1027.85
2018-01-28T10:28:23.011Z,1027.82
2018-01-28T10:29:22.913Z,1027.84
2018-01-28T10:30:22.923Z,1027.79
2018-01-28T10:31:22.862Z,1027.83
2018-01-28T10:32:22.936Z,1027.87
2018-01-28T10:33:22.808Z,1027.83
2018-01-28T10:34:22.848Z,1027.81
2018-01-28T10:35:22.758Z,1027.85
2018-01-28T10:36:22.760Z,1027.81
2018-01-28T10:37:22.706Z,1027.81
2018-01-28T10:38:22.774Z,1027.80
2018-01-28T10:39:22.657Z,1027.83
2018-01-28T10:40:22.686Z,1027.78
2018-01-28T10:41:22.602Z,1027.77
2018-01-28T10:42:22.597Z,1027.69
2018-01-28T10:43:22.548Z,1027.68
2018-01-28T10:44:22.610Z,1027.64
2018-01-28T10:45:22.497Z,1027.71
2018-01-28T10:46:22.522Z,1027.63
2018-01-28T10:47:22.446Z,1027.63
2018-01-28T10:48:22.433Z,1027.64
2018-01-28T10:49:22.395Z,1027.59
2018-01-28T10:50:22.446Z,1027.53
2018-01-28T10:51:22.343Z,1027.52
2018-01-28T10:52:22.353Z,1027.51
2018-01-28T10:53:22.292Z,1027.51
2018-01-28T10:54:22.372Z,1027.56
2018-01-28T10:55:22.240Z,1027.59
2018-01-28T10:56:22.283Z,1027.60
2018-01-28T10:57:22.188Z,1027.64
2018-01-28T10:58:22.196Z,1027.61
2018-01-28T10:59:22.138Z,1027.59
2018-01-28T11:00:22.210Z,1027.55
2018-01-28T11:01:22.086Z,1027.67
2018-01-28T11:02:22.124Z,1027.58
2018-01-28T11:03:22.033Z,1027.67
2018-01-28T11:04:22.038Z,1027.67
2018-01-28T11:05:21.982Z,1027.64
2018-01-28T11:06:22.048Z,1027.64
2018-01-28T11:07:21.932Z,1027.65
2018-01-28T11:08:21.957Z,1027.60
2018-01-28T11:09:21.882Z,1027.61
2018-01-28T11:10:21.883Z,1027.62
2018-01-28T11:11:21.832Z,1027.58
2018-01-28T11:12:21.883Z,1027.61
2018-01-28T11:13:21.780Z,1027.59
2018-01-28T11:14:21.795Z,1027.61
2018-01-28T11:15:21.730Z,1027.60
2018-01-28T11:16:21.812Z,1027.62
2018-01-28T11:17:21.680Z,1027.62
2018-01-28T11:18:21.722Z,1027.64
2018-01-28T11:19:21.629Z,1027.63
2018-01-28T11:20:21.637Z,1027.61
2018-01-28T11:21:21.580Z,1027.64
2018-01-28T11:22:21.646Z,1027.57
2018-01-28T11:23:21.532Z,1027.56
2018-01-28T11:24:21.571Z,1027.58
2018-01-28T11:25:21.477Z,1027.48
2018-01-28T11:26:21.470Z,1027.50
2018-01-28T11:27:21.427Z,1027.58
2018-01-28T11:28:21.483Z,1027.61
2018-01-28T11:29:21.380Z,1027.62
2018-01-28T11:30:21.394Z,1027.80
2018-01-28T11:31:21.327Z,1027.57
2018-01-28T11:32:21.410Z,1027.57
2018-01-28T11:33:21.273Z,1027.55
2018-01-28T11:34:21.320Z,1027.67
2018-01-28T11:35:21.232Z,1027.59
2018-01-28T11:36:21.231Z,1027.61
2018-01-28T11:37:21.176Z,1027.63
2018-01-28T11:38:21.246Z,1027.60
2018-01-28T11:39:21.126Z,1027.63
2018-01-28T11:40:21.156Z,1027.61
2018-01-28T11:41:21.084Z,1027.59
2018-01-28T11:42:21.070Z,1027.54
2018-01-28T11:43:21.025Z,1027.62
2018-01-28T11:44:21.084Z,1027.61
2018-01-28T11:45:20.973Z,1027.58
2018-01-28T11:46:20.995Z,1027.54
2018-01-28T11:47:20.925Z,1027.57
2018-01-28T11:48:21.009Z,1027.58
2018-01-28T11:49:20.874Z,1027.60
2018-01-28T11:50:20.920Z,1027.64
2018-01-28T11:51:20.821Z,1027.58
2018-01-28T11:52:20.830Z,1027.65
2018-01-28T11:53:20.777Z,1027.53
2018-01-28T11:54:20.844Z,1027.66
2018-01-28T11:55:20.721Z,1027.69
2018-01-28T11:56:20.758Z,1027.67
2018-01-28T11:57:20.673Z,1027.59
2018-01-28T11:58:20.668Z,1027.65
2018-01-28T11:59:20.622Z,1027.60
2018-01-28T12:00:20.682Z,1027.61
2018-01-28T12:01:20.569Z,1027.62
2018-01-28T12:02:20.595Z,1027.68
2018-01-28T12:03:20.521Z,1027.61
2018-01-28T12:04:20.608Z,1027.58
2018-01-28T12:05:20.471Z,1027.60